Time;durP1;ratioP1;P1;durP2;ratioP2;P2;SDS_P1;SDS_P2;PMS_P1;PMS_P2;Temp;Humidity;BMP_temperature;BMP_pressure;BME280_temperature;BME280_humidity;BME280_pressure;Samples;Min_cycle;Max_cycle;Signal;HPM_P1;HPM_P2
2023/01/20 00:01:24;;;;;;;767.77;696.57;;;-0.60;99.90;;;;;;5002680;28;20474;-81
2023/01/20 00:03:52;;;;;;;770.80;700.50;;;-0.70;99.90;;;;;;5001670;28;20458;-80
2023/01/20 00:06:20;;;;;;;752.33;683.13;;;-0.70;99.90;;;;;;5001209;28;20460;-80
2023/01/20 00:08:51;;;;;;;740.57;671.97;;;-0.80;99.90;;;;;;5001835;28;21023;-80
2023/01/20 00:11:17;;;;;;;749.83;680.00;;;-0.80;99.90;;;;;;5001628;28;20500;-80
2023/01/20 00:13:44;;;;;;;757.53;686.50;;;-0.70;99.90;;;;;;5001860;28;20958;-81
2023/01/20 00:16:12;;;;;;;766.50;693.80;;;-0.60;99.90;;;;;;5002225;28;20203;-81
2023/01/20 00:18:40;;;;;;;763.83;690.63;;;-0.50;99.90;;;;;;5001451;28;20493;-80
2023/01/20 00:21:08;;;;;;;754.10;682.27;;;-0.40;99.90;;;;;;5001414;28;20486;-80
2023/01/20 00:23:37;;;;;;;761.70;688.03;;;-0.30;99.90;;;;;;5002050;28;20462;-82
2023/01/20 00:26:05;;;;;;;742.47;668.40;;;-0.10;99.90;;;;;;5002174;28;20460;-81
2023/01/20 00:28:32;;;;;;;731.83;657.97;;;0.00;99.90;;;;;;5000397;28;20522;-80
2023/01/20 00:30:59;;;;;;;727.67;653.07;;;0.10;99.90;;;;;;5000805;28;20454;-81
2023/01/20 00:33:25;;;;;;;733.72;658.88;;;0.20;99.90;;;;;;5000636;28;20458;-81
2023/01/20 00:35:52;;;;;;;728.93;653.27;;;0.20;99.90;;;;;;5001750;28;20662;-81
2023/01/20 00:38:19;;;;;;;727.95;652.20;;;0.30;99.90;;;;;;5001339;28;20450;-81
2023/01/20 00:40:54;;;;;;;729.37;653.97;;;0.40;99.90;;;;;;5001951;28;20215;-81
2023/01/20 00:43:21;;;;;;;727.83;652.83;;;0.50;99.90;;;;;;5002428;28;20458;-80
2023/01/20 00:45:48;;;;;;;742.00;666.23;;;0.50;99.90;;;;;;5001651;28;20460;-82
2023/01/20 00:48:15;;;;;;;734.67;659.60;;;0.50;99.90;;;;;;5001932;28;20472;-80
2023/01/20 00:50:42;;;;;;;734.30;658.27;;;0.60;99.90;;;;;;5001333;28;20461;-80
2023/01/20 00:53:09;;;;;;;743.73;669.43;;;0.60;99.90;;;;;;5001405;28;20486;-81
2023/01/20 00:55:35;;;;;;;738.27;665.07;;;0.60;99.90;;;;;;5001261;28;20455;-81
2023/01/20 00:58:04;;;;;;;755.87;681.20;;;0.60;99.90;;;;;;5001435;28;20454;-80
2023/01/20 01:00:31;;;;;;;754.10;680.17;;;0.60;99.90;;;;;;5001547;28;20473;-81
2023/01/20 01:02:57;;;;;;;756.83;682.33;;;0.60;99.90;;;;;;5001465;28;20481;-80
2023/01/20 01:05:24;;;;;;;757.20;682.00;;;0.60;99.90;;;;;;5001309;28;20462;-81
2023/01/20 01:07:51;;;;;;;749.43;676.53;;;0.50;99.90;;;;;;5001519;28;20450;-81
2023/01/20 01:10:18;;;;;;;741.43;669.27;;;0.50;99.90;;;;;;5001224;28;20454;-81
2023/01/20 01:12:45;;;;;;;744.20;672.47;;;0.50;99.90;;;;;;5000976;28;20478;-81
2023/01/20 01:15:13;;;;;;;745.13;674.47;;;0.60;99.90;;;;;;5001099;28;20450;-81
2023/01/20 01:17:39;;;;;;;747.57;676.70;;;0.50;99.90;;;;;;5000126;28;20446;-81
2023/01/20 01:20:07;;;;;;;739.83;667.37;;;0.50;99.90;;;;;;5001492;28;20481;-81
2023/01/20 01:22:34;;;;;;;743.00;670.80;;;0.60;99.90;;;;;;5001471;28;20474;-81
2023/01/20 01:25:00;;;;;;;748.13;675.93;;;0.60;99.90;;;;;;5001135;28;20462;-81
2023/01/20 01:27:28;;;;;;;741.75;671.33;;;0.60;99.90;;;;;;5000655;28;20453;-80
2023/01/20 01:29:55;;;;;;;739.80;668.50;;;0.60;99.90;;;;;;5001324;28;20199;-81
2023/01/20 01:32:24;;;;;;;747.03;675.53;;;0.70;99.90;;;;;;5000602;28;20482;-82
2023/01/20 01:34:51;;;;;;;763.00;692.10;;;0.70;99.90;;;;;;5000787;28;20464;-81
2023/01/20 01:37:17;;;;;;;764.93;693.93;;;0.80;99.90;;;;;;5000930;28;20450;-81
2023/01/20 01:39:44;;;;;;;786.40;714.23;;;0.80;99.90;;;;;;5001025;28;20478;-81
2023/01/20 01:42:12;;;;;;;780.43;709.90;;;0.80;99.90;;;;;;5001300;28;20470;-82
2023/01/20 01:44:59;;;;;;;787.67;716.10;;;0.90;99.90;;;;;;5015177;28;20897;-81
2023/01/20 01:47:27;;;;;;;776.93;705.27;;;0.90;99.90;;;;;;5019986;28;21120;-81
2023/01/20 01:49:54;;;;;;;755.47;686.43;;;0.80;99.90;;;;;;5020401;28;20617;-81
2023/01/20 01:52:21;;;;;;;750.40;681.72;;;0.80;99.90;;;;;;5020163;28;20495;-81
2023/01/20 01:54:48;;;;;;;756.97;687.70;;;0.90;99.90;;;;;;5019967;28;20208;-81
2023/01/20 01:57:15;;;;;;;765.00;695.47;;;0.80;99.90;;;;;;5019554;28;20533;-81
2023/01/20 01:59:43;;;;;;;760.27;690.07;;;0.90;99.90;;;;;;5020705;28;20453;-81
2023/01/20 02:02:10;;;;;;;753.90;684.30;;;0.90;99.90;;;;;;5019543;28;20477;-81
2023/01/20 02:04:38;;;;;;;767.40;697.60;;;1.00;99.90;;;;;;5020078;28;20869;-82
2023/01/20 02:07:11;;;;;;;755.30;686.93;;;0.90;99.90;;;;;;5019937;28;20464;-81
2023/01/20 02:09:38;;;;;;;758.37;688.73;;;0.90;99.90;;;;;;5020163;28;20456;-81
2023/01/20 02:12:09;;;;;;;749.40;680.70;;;0.90;99.90;;;;;;5019423;28;20999;-81
2023/01/20 02:14:40;;;;;;;752.20;683.55;;;1.00;99.90;;;;;;5020064;28;20453;-81
2023/01/20 02:17:18;;;;;;;759.00;690.57;;;1.00;99.90;;;;;;5020331;28;20198;-81
2023/01/20 02:20:35;;;;;;;756.43;688.00;;;1.00;99.90;;;;;;5019721;28;20453;-81
2023/01/20 02:23:10;;;;;;;784.23;713.70;;;1.10;99.90;;;;;;4958974;29;20472;-81
2023/01/20 02:29:29;;;;;;;776.07;706.00;;;1.10;99.90;;;;;;5019420;28;20459;-81
2023/01/20 02:32:11;;;;;;;747.30;678.33;;;1.10;99.90;;;;;;5020031;28;20500;-81
2023/01/20 02:34:42;;;;;;;756.73;687.80;;;1.10;99.90;;;;;;5019614;28;20434;-81
2023/01/20 02:37:14;;;;;;;759.90;691.33;;;1.20;99.90;;;;;;5019585;28;20445;-81
2023/01/20 02:39:44;;;;;;;755.43;685.77;;;1.10;99.90;;;;;;5019411;28;20460;-81
2023/01/20 02:42:14;;;;;;;749.43;681.23;;;1.20;99.90;;;;;;5019638;28;20485;-81
2023/01/20 02:44:46;;;;;;;754.47;687.57;;;1.20;99.90;;;;;;5020189;28;20456;-81
2023/01/20 02:47:19;;;;;;;757.27;690.10;;;1.20;99.90;;;;;;5019393;28;20948;-80
2023/01/20 02:49:54;;;;;;;759.00;691.70;;;1.20;99.90;;;;;;5019763;28;20433;-81
2023/01/20 02:52:23;;;;;;;748.23;682.30;;;1.20;99.90;;;;;;5019886;28;20221;-80
2023/01/20 02:54:53;;;;;;;756.03;690.40;;;1.20;99.90;;;;;;5019754;28;20487;-80
2023/01/20 02:57:25;;;;;;;751.67;686.67;;;1.20;99.90;;;;;;5022916;28;20453;-81
2023/01/20 02:59:56;;;;;;;753.90;690.60;;;1.20;99.90;;;;;;5023364;28;20457;-81
2023/01/20 03:02:28;;;;;;;772.13;708.70;;;1.20;99.90;;;;;;5023920;28;20484;-82
2023/01/20 03:05:01;;;;;;;770.13;707.07;;;1.20;99.90;;;;;;5023812;28;20441;-80
2023/01/20 03:07:31;;;;;;;782.33;719.73;;;1.20;99.90;;;;;;5023090;28;20441;-81
2023/01/20 03:10:02;;;;;;;765.97;704.17;;;1.20;99.90;;;;;;5024218;28;20448;-81
2023/01/20 03:12:33;;;;;;;756.20;696.37;;;1.10;99.90;;;;;;5023354;28;20477;-80
2023/01/20 03:15:00;;;;;;;735.60;677.10;;;1.00;99.90;;;;;;5023449;28;20453;-82
2023/01/20 03:17:28;;;;;;;750.43;691.70;;;1.00;99.90;;;;;;5022771;28;20466;-81
2023/01/20 03:19:55;;;;;;;748.57;689.67;;;1.00;99.90;;;;;;5023375;28;20461;-81
2023/01/20 03:22:22;;;;;;;738.87;681.57;;;0.90;99.90;;;;;;5022804;28;20477;-81
2023/01/20 03:24:49;;;;;;;743.73;686.83;;;0.90;99.90;;;;;;5023827;28;20453;-81
2023/01/20 03:27:16;;;;;;;737.87;682.20;;;0.90;99.90;;;;;;5022840;28;20456;-81
2023/01/20 03:29:42;;;;;;;730.73;676.03;;;0.80;99.90;;;;;;5022957;28;20460;-81
2023/01/20 03:32:11;;;;;;;737.60;682.60;;;0.80;99.90;;;;;;5022107;28;20999;-81
2023/01/20 03:34:42;;;;;;;727.60;673.30;;;0.70;99.90;;;;;;5022905;28;20457;-81
2023/01/20 03:37:11;;;;;;;725.93;672.40;;;0.70;99.90;;;;;;5023078;28;20453;-81
2023/01/20 03:39:39;;;;;;;725.80;673.30;;;0.70;99.90;;;;;;5022951;28;20460;-81
2023/01/20 03:42:10;;;;;;;721.00;668.83;;;0.60;99.90;;;;;;5023532;28;20861;-81
2023/01/20 03:44:57;;;;;;;744.20;691.20;;;0.50;99.90;;;;;;5023082;28;20453;-83
2023/01/20 03:47:34;;;;;;;749.90;696.93;;;0.50;99.90;;;;;;5023177;28;20464;-80
2023/01/20 03:50:08;;;;;;;736.10;683.97;;;0.30;99.90;;;;;;5022132;28;21039;-81
2023/01/20 03:52:40;;;;;;;760.20;705.93;;;0.30;99.90;;;;;;5022803;28;20472;-81
2023/01/20 03:55:16;;;;;;;766.07;710.50;;;0.20;99.90;;;;;;5022151;28;20458;-81
2023/01/20 03:57:51;;;;;;;736.43;680.93;;;0.30;99.90;;;;;;5023003;28;20460;-81
2023/01/20 04:00:21;;;;;;;751.67;696.03;;;0.20;99.90;;;;;;5021963;28;20971;-81
2023/01/20 04:02:49;;;;;;;750.47;695.10;;;0.20;99.90;;;;;;5022131;28;20475;-81
2023/01/20 04:05:17;;;;;;;742.03;686.33;;;0.20;99.90;;;;;;5022106;28;20453;-82
2023/01/20 04:07:46;;;;;;;728.20;672.97;;;0.10;99.90;;;;;;5021313;28;20456;-81
2023/01/20 04:10:15;;;;;;;729.03;674.43;;;0.00;99.90;;;;;;5021787;28;20456;-81
2023/01/20 04:12:42;;;;;;;722.67;669.78;;;-0.20;99.90;;;;;;5021694;28;20484;-81
2023/01/20 04:15:10;;;;;;;734.07;681.27;;;-0.30;99.90;;;;;;5021857;28;20198;-81
2023/01/20 04:17:37;;;;;;;728.97;676.50;;;-0.40;99.90;;;;;;5021370;28;20511;-81
2023/01/20 04:20:10;;;;;;;719.60;665.60;;;-0.50;99.90;;;;;;5021100;28;21110;-80
2023/01/20 04:22:43;;;;;;;723.75;670.42;;;-0.60;99.90;;;;;;5021719;28;20527;-80
2023/01/20 04:25:15;;;;;;;730.67;675.57;;;-0.70;99.90;;;;;;5021913;28;20202;-81
2023/01/20 04:27:41;;;;;;;750.63;693.37;;;-0.70;99.90;;;;;;5020630;28;20441;-80
2023/01/20 04:30:09;;;;;;;730.20;675.55;;;-0.70;99.90;;;;;;5021517;28;20453;-80
2023/01/20 04:32:36;;;;;;;736.58;681.42;;;-0.80;99.90;;;;;;5021367;28;20236;-81
2023/01/20 04:35:03;;;;;;;762.28;705.88;;;-0.90;99.90;;;;;;5021855;28;20198;-81
2023/01/20 04:37:29;;;;;;;751.30;694.40;;;-0.80;99.90;;;;;;5021010;28;20206;-80
2023/01/20 04:39:58;;;;;;;722.53;664.33;;;-0.80;99.90;;;;;;5021395;28;20456;-80
2023/01/20 04:42:25;;;;;;;727.13;668.90;;;-0.80;99.90;;;;;;5020660;28;20233;-80
2023/01/20 04:44:51;;;;;;;719.50;662.90;;;-0.80;99.90;;;;;;5018566;28;20468;-80
2023/01/20 04:47:18;;;;;;;711.38;654.38;;;-0.90;99.90;;;;;;5018706;28;20457;-79
2023/01/20 04:49:45;;;;;;;719.92;663.00;;;-0.90;99.90;;;;;;5019191;28;20198;-82
2023/01/20 04:52:11;;;;;;;716.67;659.47;;;-0.90;99.90;;;;;;5020194;28;20276;-82
2023/01/20 04:54:38;;;;;;;735.20;675.40;;;-0.90;99.90;;;;;;5020764;28;20492;-81
2023/01/20 04:57:06;;;;;;;739.83;679.72;;;-0.80;99.90;;;;;;5019872;28;20461;-80
2023/01/20 04:59:33;;;;;;;740.17;680.20;;;-0.70;99.90;;;;;;5019558;28;20199;-80
2023/01/20 05:02:00;;;;;;;730.97;671.30;;;-0.70;99.90;;;;;;5019605;28;20481;-80
2023/01/20 05:04:27;;;;;;;744.42;684.15;;;-0.60;99.90;;;;;;5019328;28;20959;-80
2023/01/20 05:06:53;;;;;;;726.07;666.13;;;-0.60;99.90;;;;;;5019338;28;20683;-80
2023/01/20 05:09:20;;;;;;;768.57;707.10;;;-0.70;99.90;;;;;;5020444;28;20457;-81
2023/01/20 05:11:47;;;;;;;776.28;713.58;;;-0.60;99.90;;;;;;5018777;28;20500;-80
2023/01/20 05:14:15;;;;;;;760.88;699.15;;;-0.70;99.90;;;;;;5018425;28;20669;-80
2023/01/20 05:16:42;;;;;;;758.05;696.03;;;-0.80;99.90;;;;;;5018906;28;20277;-80
2023/01/20 05:19:10;;;;;;;766.75;703.90;;;-0.80;99.90;;;;;;5018063;28;20225;-80
2023/01/20 05:21:36;;;;;;;739.22;676.42;;;-0.80;99.90;;;;;;5020050;28;20233;-83
2023/01/20 05:24:04;;;;;;;737.00;671.90;;;-0.70;99.90;;;;;;5020519;28;20205;-81
2023/01/20 05:26:31;;;;;;;735.97;670.47;;;-0.60;99.90;;;;;;5020287;28;20459;-81
2023/01/20 05:28:58;;;;;;;742.33;676.33;;;-0.40;99.90;;;;;;5021452;28;20456;-80
2023/01/20 05:31:26;;;;;;;744.97;676.70;;;-0.20;99.90;;;;;;5020343;28;20481;-80
2023/01/20 05:33:53;;;;;;;742.10;674.33;;;-0.20;99.90;;;;;;5020101;28;20837;-80
2023/01/20 05:36:19;;;;;;;753.10;684.60;;;-0.10;99.90;;;;;;5019589;28;20453;-80
2023/01/20 05:38:46;;;;;;;748.97;679.03;;;-0.10;99.90;;;;;;5019199;28;20453;-80
2023/01/20 05:41:13;;;;;;;754.60;685.90;;;0.10;99.90;;;;;;5018418;28;20491;-80
2023/01/20 05:43:40;;;;;;;762.97;694.47;;;0.10;99.90;;;;;;5019002;28;20461;-79
2023/01/20 05:46:07;;;;;;;769.33;700.33;;;0.10;99.90;;;;;;5018518;28;20836;-81
2023/01/20 05:48:35;;;;;;;765.20;696.17;;;0.10;99.90;;;;;;5019108;28;20490;-81
2023/01/20 05:51:01;;;;;;;795.20;725.83;;;0.10;99.90;;;;;;5019702;28;21129;-82
2023/01/20 05:53:28;;;;;;;802.27;731.33;;;0.20;99.90;;;;;;5019514;28;20453;-80
2023/01/20 05:56:02;;;;;;;801.53;730.63;;;0.30;99.90;;;;;;5018939;28;20457;-80
2023/01/20 05:58:33;;;;;;;807.27;735.83;;;0.40;99.90;;;;;;5020255;28;20845;-80
2023/01/20 06:01:05;;;;;;;808.10;737.50;;;0.40;99.90;;;;;;5018642;28;20519;-80
2023/01/20 06:03:32;;;;;;;810.13;740.37;;;0.40;99.90;;;;;;5017037;28;21034;-79
2023/01/20 06:06:01;;;;;;;805.60;734.47;;;0.40;99.90;;;;;;5015607;28;20457;-80
2023/01/20 06:08:28;;;;;;;788.53;720.70;;;0.50;99.90;;;;;;5015702;28;20199;-80
2023/01/20 06:10:55;;;;;;;778.93;709.70;;;0.50;99.90;;;;;;5016155;28;20453;-79
2023/01/20 06:13:22;;;;;;;771.57;704.70;;;0.50;99.90;;;;;;5015617;28;20449;-80
2023/01/20 06:15:52;;;;;;;770.10;702.73;;;0.50;99.90;;;;;;5015554;28;20457;-80
2023/01/20 06:18:19;;;;;;;764.73;697.70;;;0.60;99.90;;;;;;5015998;28;20457;-80
2023/01/20 06:20:46;;;;;;;771.07;703.53;;;0.70;99.90;;;;;;5015390;28;20457;-80
2023/01/20 06:23:14;;;;;;;754.60;689.37;;;0.70;99.90;;;;;;5015784;28;20484;-78
2023/01/20 06:25:42;;;;;;;748.07;684.77;;;0.70;99.90;;;;;;5015666;28;20913;-81
2023/01/20 06:28:09;;;;;;;757.83;692.97;;;0.70;99.90;;;;;;5015087;28;20457;-80
2023/01/20 06:30:36;;;;;;;757.10;692.90;;;0.70;99.90;;;;;;5017354;28;20457;-80
2023/01/20 06:33:09;;;;;;;788.90;726.17;;;0.70;99.90;;;;;;5020487;28;20511;-79
2023/01/20 06:35:36;;;;;;;781.23;720.10;;;0.80;99.90;;;;;;5019853;28;20967;-80
2023/01/20 06:38:02;;;;;;;781.50;721.40;;;0.80;99.90;;;;;;5020124;28;20456;-80
2023/01/20 06:40:31;;;;;;;780.67;719.43;;;0.80;99.90;;;;;;5020245;28;20461;-80
2023/01/20 06:42:58;;;;;;;749.50;690.33;;;0.80;99.90;;;;;;5019836;28;20488;-80
2023/01/20 06:45:24;;;;;;;731.03;671.07;;;0.80;99.90;;;;;;5018555;28;20457;-80
2023/01/20 06:47:51;;;;;;;728.73;670.80;;;0.90;99.90;;;;;;5018804;28;20453;-80
2023/01/20 06:50:18;;;;;;;727.50;670.03;;;0.90;99.90;;;;;;5020316;28;20459;-79
2023/01/20 06:52:45;;;;;;;729.40;672.10;;;1.00;99.90;;;;;;5019748;28;20472;-80
2023/01/20 06:55:11;;;;;;;732.90;676.00;;;0.90;99.90;;;;;;5020831;28;20453;-80
2023/01/20 06:57:39;;;;;;;726.33;670.10;;;0.90;99.90;;;;;;5020645;28;20465;-80
2023/01/20 07:00:08;;;;;;;734.67;678.07;;;1.00;99.90;;;;;;5020165;28;20467;-80
2023/01/20 07:02:34;;;;;;;720.53;665.83;;;1.00;99.90;;;;;;5019327;28;20999;-80
2023/01/20 07:05:01;;;;;;;732.20;677.00;;;1.10;99.90;;;;;;5020550;28;20453;-81
2023/01/20 07:07:28;;;;;;;739.33;684.73;;;1.00;99.90;;;;;;5020374;28;20449;-80
2023/01/20 07:09:55;;;;;;;732.50;679.80;;;1.00;99.90;;;;;;5019864;28;20465;-80
2023/01/20 07:12:22;;;;;;;742.27;689.47;;;1.00;99.90;;;;;;5018988;28;20473;-80
2023/01/20 07:14:50;;;;;;;747.37;694.87;;;1.10;99.90;;;;;;5019475;28;20452;-78
2023/01/20 07:17:17;;;;;;;738.87;687.87;;;1.00;99.90;;;;;;5018610;28;20452;-80
2023/01/20 07:19:43;;;;;;;728.30;677.60;;;1.00;99.90;;;;;;5019122;28;20468;-80
2023/01/20 07:22:10;;;;;;;742.77;690.47;;;1.00;99.90;;;;;;5018842;28;20999;-80
2023/01/20 07:24:37;;;;;;;746.10;695.70;;;1.00;99.90;;;;;;5019209;28;20468;-80
2023/01/20 07:27:04;;;;;;;736.97;686.57;;;1.00;99.90;;;;;;5019225;28;20453;-79
2023/01/20 07:29:30;;;;;;;719.03;670.67;;;1.10;99.90;;;;;;5006083;28;20455;-80
2023/01/20 07:31:58;;;;;;;721.83;673.43;;;1.10;99.90;;;;;;4986609;28;20489;-80
2023/01/20 07:34:25;;;;;;;723.07;676.57;;;1.10;99.90;;;;;;4998525;28;20833;-80
2023/01/20 07:36:52;;;;;;;711.87;667.57;;;1.10;99.90;;;;;;5014628;28;20464;-79
2023/01/20 07:39:19;;;;;;;707.27;659.57;;;1.00;99.90;;;;;;5018836;28;20453;-80
2023/01/20 07:41:47;;;;;;;695.83;651.67;;;1.10;99.90;;;;;;5017673;28;20535;-80
2023/01/20 07:44:14;;;;;;;686.90;643.90;;;1.10;99.90;;;;;;5018086;28;20453;-80
2023/01/20 07:46:41;;;;;;;678.33;638.13;;;1.10;99.90;;;;;;5017302;28;20457;-80
2023/01/20 07:49:11;;;;;;;665.70;626.73;;;1.10;99.90;;;;;;5019327;28;20456;-79
2023/01/20 07:51:38;;;;;;;659.60;621.50;;;1.00;99.90;;;;;;5018230;28;20481;-79
2023/01/20 07:54:05;;;;;;;651.80;613.97;;;1.10;99.90;;;;;;5020237;28;20453;-81
2023/01/20 07:56:32;;;;;;;607.75;574.60;;;1.10;99.90;;;;;;5017284;28;20459;-80
2023/01/20 07:58:59;;;;;;;626.78;591.42;;;1.10;99.90;;;;;;5018238;28;20203;-80
2023/01/20 08:01:28;;;;;;;628.67;594.23;;;1.20;99.90;;;;;;5018505;28;20222;-80
2023/01/20 08:03:55;;;;;;;618.60;586.50;;;1.20;99.90;;;;;;5018953;28;20944;-80
2023/01/20 08:06:25;;;;;;;617.57;585.13;;;1.10;99.90;;;;;;5018313;28;20464;-80
2023/01/20 08:08:52;;;;;;;611.13;579.87;;;1.20;99.90;;;;;;5018791;28;20829;-80
2023/01/20 08:11:21;;;;;;;603.17;572.27;;;1.20;99.90;;;;;;5018617;28;20476;-80
2023/01/20 08:13:48;;;;;;;603.67;572.10;;;1.20;99.90;;;;;;5019438;28;20852;-81
2023/01/20 08:16:16;;;;;;;598.47;568.43;;;1.20;99.90;;;;;;5019136;28;20819;-79
2023/01/20 08:18:44;;;;;;;590.80;561.20;;;1.20;99.90;;;;;;5019265;28;20457;-80
2023/01/20 08:21:17;;;;;;;596.80;566.97;;;1.30;99.90;;;;;;5018880;28;20453;-81
2023/01/20 08:23:45;;;;;;;619.57;587.53;;;1.20;99.90;;;;;;5018419;28;20483;-81
2023/01/20 08:26:12;;;;;;;615.77;584.00;;;1.20;99.90;;;;;;5018946;28;20453;-80
2023/01/20 08:28:39;;;;;;;613.57;583.30;;;1.20;99.90;;;;;;5018811;28;20820;-80
2023/01/20 08:31:08;;;;;;;625.80;594.60;;;1.30;99.90;;;;;;5018595;28;20456;-80
2023/01/20 08:33:35;;;;;;;639.13;606.43;;;1.30;99.90;;;;;;5018745;28;20449;-80
2023/01/20 08:36:07;;;;;;;632.23;599.23;;;1.30;99.90;;;;;;5019410;28;20453;-81
2023/01/20 08:38:33;;;;;;;617.53;586.00;;;1.40;99.90;;;;;;5019259;28;20465;-81
2023/01/20 08:41:02;;;;;;;608.73;578.20;;;1.40;99.90;;;;;;5019257;28;20457;-80
2023/01/20 08:43:28;;;;;;;585.23;557.23;;;1.40;99.90;;;;;;5019049;28;20481;-80
2023/01/20 08:45:59;;;;;;;559.13;533.13;;;1.40;99.90;;;;;;5019036;28;20479;-81
2023/01/20 08:48:26;;;;;;;565.50;538.27;;;1.50;99.90;;;;;;5019279;28;20454;-81
2023/01/20 08:50:52;;;;;;;540.10;514.50;;;1.50;99.90;;;;;;5019562;28;20453;-80
2023/01/20 08:53:19;;;;;;;553.40;526.93;;;1.50;99.90;;;;;;5018749;28;20453;-81
2023/01/20 08:55:55;;;;;;;549.90;523.47;;;1.60;99.90;;;;;;5020044;28;20457;-80
2023/01/20 08:58:24;;;;;;;564.70;538.20;;;1.60;99.90;;;;;;5020106;28;20452;-80
2023/01/20 09:00:51;;;;;;;584.63;557.03;;;1.60;99.90;;;;;;5019958;28;20464;-80
2023/01/20 09:03:18;;;;;;;545.27;520.03;;;1.60;99.90;;;;;;5019877;28;20488;-81
2023/01/20 09:05:45;;;;;;;516.30;493.40;;;1.70;99.90;;;;;;5020776;28;20532;-81
2023/01/20 09:08:17;;;;;;;545.83;521.70;;;1.70;99.90;;;;;;5020617;28;20457;-81
2023/01/20 09:10:44;;;;;;;555.53;529.43;;;1.60;99.90;;;;;;5021630;28;20457;-81
2023/01/20 09:13:15;;;;;;;546.83;522.03;;;1.60;99.90;;;;;;5020364;28;20472;-80
2023/01/20 09:15:52;;;;;;;554.53;529.63;;;1.70;99.90;;;;;;5096981;27;20538;-81
2023/01/20 09:18:22;;;;;;;553.00;527.57;;;1.70;99.90;;;;;;5097520;28;20450;-81
2023/01/20 09:20:49;;;;;;;573.87;547.37;;;1.70;99.90;;;;;;5097845;28;20446;-81
2023/01/20 09:23:16;;;;;;;586.13;557.63;;;1.70;99.90;;;;;;5097860;28;20480;-81
2023/01/20 09:25:42;;;;;;;567.47;541.47;;;1.70;99.90;;;;;;5097228;28;20472;-83
2023/01/20 09:28:13;;;;;;;562.33;536.93;;;1.80;99.90;;;;;;5097942;28;20842;-82
2023/01/20 09:30:42;;;;;;;587.60;560.97;;;1.80;99.90;;;;;;5097366;28;20449;-81
2023/01/20 09:33:17;;;;;;;576.47;551.03;;;1.80;99.90;;;;;;5096921;28;20469;-83
2023/01/20 09:35:44;;;;;;;579.43;554.40;;;1.80;99.90;;;;;;5096826;28;20472;-82
2023/01/20 09:44:06;;;;;;;571.13;546.60;;;2.00;99.90;;;;;;5097096;28;20782;-81
2023/01/20 09:55:23;;;;;;;346.33;332.93;;;2.20;99.90;;;;;;5096798;28;20848;-80
2023/01/20 09:57:58;;;;;;;293.23;282.20;;;2.20;99.90;;;;;;5094737;28;20450;-85
2023/01/20 10:00:27;;;;;;;82.85;78.18;;;2.10;99.90;;;;;;5097595;28;20955;-83
2023/01/20 10:03:12;;;;;;;95.00;90.13;;;2.10;99.90;;;;;;5098347;28;20223;-82
2023/01/20 10:05:42;;;;;;;113.43;108.13;;;2.10;99.90;;;;;;5096543;28;20948;-81
2023/01/20 10:08:14;;;;;;;116.63;110.43;;;2.10;99.90;;;;;;5097765;28;20456;-84
2023/01/20 10:10:58;;;;;;;120.03;114.20;;;2.30;99.90;;;;;;5101799;28;20450;-83
2023/01/20 10:13:32;;;;;;;36.92;33.78;;;2.10;99.90;;;;;;5099370;28;20455;-83
2023/01/20 10:16:02;;;;;;;44.05;40.70;;;2.20;99.90;;;;;;5100471;28;20766;-83
2023/01/20 10:18:39;;;;;;;67.53;63.60;;;2.30;99.90;;;;;;5100925;28;20175;-84
2023/01/20 10:21:12;;;;;;;73.00;69.10;;;2.40;99.90;;;;;;5101218;28;20459;-83
2023/01/20 10:23:46;;;;;;;68.53;65.03;;;2.50;99.90;;;;;;5100409;28;20507;-83
2023/01/20 10:26:17;;;;;;;55.43;52.33;;;2.50;99.90;;;;;;5092006;28;20458;-83
2023/01/20 10:28:51;;;;;;;42.00;38.90;;;2.50;99.90;;;;;;5086450;28;20458;-82
2023/01/20 10:31:25;;;;;;;25.07;23.00;;;2.50;99.90;;;;;;5086429;28;20565;-83
2023/01/20 10:33:55;;;;;;;16.50;14.90;;;2.50;99.90;;;;;;5082659;28;20457;-81
2023/01/20 10:36:27;;;;;;;14.27;11.73;;;2.40;99.90;;;;;;5080848;28;20461;-80
2023/01/20 10:38:58;;;;;;;25.03;15.40;;;2.40;99.90;;;;;;5081328;28;20450;-81
2023/01/20 10:41:33;;;;;;;16.60;14.90;;;2.40;99.90;;;;;;5081567;28;20474;-81
2023/01/20 10:44:00;;;;;;;24.45;21.85;;;2.50;99.90;;;;;;5080718;28;20453;-83
2023/01/20 10:46:43;;;;;;;20.67;18.57;;;2.40;99.90;;;;;;5078684;28;20258;-80
2023/01/20 10:49:33;;;;;;;31.03;20.43;;;2.40;99.90;;;;;;5079518;28;20461;-80
2023/01/20 10:52:14;;;;;;;52.47;18.33;;;2.50;99.90;;;;;;5078052;28;20469;-81
2023/01/20 10:54:50;;;;;;;24.53;22.33;;;2.50;99.90;;;;;;5069192;28;20553;-80
2023/01/20 10:57:17;;;;;;;30.93;28.63;;;2.60;99.90;;;;;;5059509;28;20459;-80
2023/01/20 10:59:46;;;;;;;33.70;31.23;;;2.50;99.90;;;;;;5059666;28;20452;-81
2023/01/20 11:02:17;;;;;;;40.63;38.13;;;2.60;99.90;;;;;;5059236;28;20482;-80
2023/01/20 11:04:45;;;;;;;43.33;40.43;;;2.60;99.90;;;;;;5058979;28;20447;-80
2023/01/20 11:07:17;;;;;;;45.83;42.83;;;2.60;99.90;;;;;;5059561;28;20447;-81
2023/01/20 11:09:47;;;;;;;52.37;48.73;;;2.60;99.90;;;;;;5059047;28;20459;-81
2023/01/20 11:12:18;;;;;;;59.83;56.53;;;2.70;99.90;;;;;;5059332;28;20468;-80
2023/01/20 11:14:46;;;;;;;68.17;64.13;;;2.70;99.90;;;;;;5059053;28;20567;-80
2023/01/20 11:17:16;;;;;;;69.53;66.13;;;2.80;99.90;;;;;;5057913;28;20450;-80
2023/01/20 11:19:48;;;;;;;64.83;61.03;;;2.80;99.90;;;;;;5058845;28;20451;-80
2023/01/20 11:22:22;;;;;;;60.67;57.33;;;2.80;99.90;;;;;;5058678;28;20493;-80
2023/01/20 11:24:54;;;;;;;58.20;54.47;;;2.90;99.90;;;;;;5058404;28;20455;-80
2023/01/20 11:27:25;;;;;;;55.20;52.13;;;2.90;99.90;;;;;;5064192;28;20888;-80
2023/01/20 11:29:58;;;;;;;53.23;49.73;;;2.90;99.90;;;;;;5078511;28;20465;-80
2023/01/20 11:32:34;;;;;;;48.70;45.50;;;3.00;99.90;;;;;;5078807;28;20478;-80
2023/01/20 11:35:02;;;;;;;41.43;38.93;;;3.10;99.90;;;;;;5078455;28;20484;-80
2023/01/20 11:37:38;;;;;;;37.33;34.80;;;3.00;99.90;;;;;;5077391;28;20482;-80
2023/01/20 11:40:22;;;;;;;27.05;24.55;;;2.90;99.90;;;;;;5077610;28;20545;-81
2023/01/20 11:42:50;;;;;;;33.70;31.23;;;2.90;99.90;;;;;;5077394;28;20226;-80
2023/01/20 11:45:29;;;;;;;31.00;28.30;;;2.80;99.90;;;;;;5078601;28;20450;-80
2023/01/20 11:48:05;;;;;;;40.03;36.83;;;2.90;99.90;;;;;;5078959;28;20496;-80
2023/01/20 11:50:35;;;;;;;54.73;51.60;;;2.90;99.90;;;;;;5079410;28;20450;-80
2023/01/20 11:53:18;;;;;;;33.03;30.33;;;2.70;99.90;;;;;;5078550;28;20828;-80
2023/01/20 11:55:49;;;;;;;40.33;33.53;;;2.70;99.90;;;;;;5078178;28;20867;-81
2023/01/20 11:58:19;;;;;;;97.63;92.87;;;2.50;99.90;;;;;;5077887;28;20862;-81
2023/01/20 12:00:46;;;;;;;125.83;120.77;;;2.40;99.90;;;;;;5079155;28;20872;-82
2023/01/20 12:03:28;;;;;;;165.13;158.67;;;2.30;99.90;;;;;;5078094;28;20467;-80
2023/01/20 12:06:01;;;;;;;198.07;190.53;;;2.30;99.90;;;;;;5078456;28;20447;-81
2023/01/20 12:08:33;;;;;;;222.83;215.13;;;2.20;99.90;;;;;;5079802;28;20451;-81
2023/01/20 12:11:04;;;;;;;255.60;246.97;;;2.20;99.90;;;;;;5079931;28;20454;-80
2023/01/20 12:14:18;;;;;;;279.20;270.00;;;2.10;99.90;;;;;;5079645;28;20455;-81
2023/01/20 12:16:25;;;;;;;308.17;297.47;;;2.00;99.90;;;;;;5076810;28;20495;-80
2023/01/20 12:18:57;;;;;;;331.13;320.27;;;2.00;99.90;;;;;;5076934;28;20450;-81
2023/01/20 12:21:31;;;;;;;344.10;332.07;;;1.90;99.90;;;;;;5076424;28;20479;-80
2023/01/20 12:24:03;;;;;;;422.47;407.37;;;1.90;99.90;;;;;;5076435;28;20458;-80
2023/01/20 12:26:34;;;;;;;471.70;453.77;;;1.90;99.90;;;;;;5076163;28;20431;-78
2023/01/20 12:29:07;;;;;;;474.63;456.87;;;1.90;99.90;;;;;;5075809;28;20801;-80
2023/01/20 12:31:34;;;;;;;515.87;495.47;;;1.90;99.90;;;;;;5076185;28;20470;-79
2023/01/20 12:34:04;;;;;;;553.97;532.27;;;1.90;99.90;;;;;;5076549;28;20487;-81
2023/01/20 12:36:43;;;;;;;550.17;527.93;;;1.80;99.90;;;;;;5074019;28;20478;-79
2023/01/20 12:39:28;;;;;;;588.43;563.27;;;1.70;99.90;;;;;;5055128;28;20448;-78
2023/01/20 12:42:18;;;;;;;589.80;564.13;;;1.70;99.90;;;;;;5052728;28;21023;-79
2023/01/20 12:44:49;;;;;;;608.23;581.63;;;1.60;99.90;;;;;;5052026;28;20454;-78
2023/01/20 12:47:29;;;;;;;592.43;567.73;;;1.50;99.90;;;;;;5055230;28;20455;-83
2023/01/20 12:50:19;;;;;;;585.97;561.90;;;1.40;99.90;;;;;;5053179;28;20454;-78